createdAt,value
2018-06-24T00:01:56.355Z,14.30
2018-06-24T00:05:50.455Z,14.30
2018-06-24T00:09:45.004Z,14.20
2018-06-24T00:13:39.155Z,14.20
2018-06-24T00:17:33.440Z,14.20
2018-06-24T00:21:27.431Z,14.10
2018-06-24T00:25:21.382Z,14.20
2018-06-24T00:29:16.287Z,14.20
2018-06-24T00:33:10.723Z,14.20
2018-06-24T00:37:04.616Z,14.20
2018-06-24T00:40:58.517Z,14.30
2018-06-24T00:44:52.758Z,14.40
2018-06-24T00:48:46.336Z,14.50
2018-06-24T00:52:40.518Z,14.50
2018-06-24T00:56:34.507Z,14.60
2018-06-24T01:00:29.384Z,14.60
2018-06-24T01:04:23.429Z,14.50
2018-06-24T01:08:17.346Z,14.60
2018-06-24T01:12:11.454Z,14.50
2018-06-24T01:16:05.454Z,14.50
2018-06-24T01:20:00.297Z,14.50
2018-06-24T01:23:54.923Z,14.50
2018-06-24T01:27:49.055Z,14.50
2018-06-24T01:31:43.554Z,14.50
2018-06-24T01:35:37.547Z,14.50
2018-06-24T01:39:31.633Z,14.50
2018-06-24T01:43:25.746Z,14.50
2018-06-24T01:47:19.453Z,14.40
2018-06-24T01:51:13.408Z,14.40
2018-06-24T01:55:07.427Z,14.40
2018-06-24T01:59:01.540Z,14.40
2018-06-24T02:02:55.597Z,14.40
2018-06-24T02:06:50.528Z,14.40
2018-06-24T02:10:44.527Z,14.40
2018-06-24T02:14:38.605Z,14.40
2018-06-24T02:18:32.550Z,14.40
2018-06-24T02:22:26.825Z,14.40
2018-06-24T02:26:20.795Z,14.50
2018-06-24T02:30:15.033Z,14.40
2018-06-24T02:34:09.197Z,14.30
2018-06-24T02:38:03.219Z,14.30
2018-06-24T02:41:57.273Z,14.40
2018-06-24T02:45:51.187Z,14.30
2018-06-24T02:49:45.003Z,14.30
2018-06-24T02:53:38.996Z,14.30
2018-06-24T02:57:33.056Z,14.30
2018-06-24T03:01:27.072Z,14.20
2018-06-24T03:05:21.071Z,14.10
2018-06-24T03:09:15.131Z,14.10
2018-06-24T03:13:10.184Z,14.10
2018-06-24T03:17:18.885Z,14.10
2018-06-24T03:21:12.004Z,14.10
2018-06-24T03:25:05.940Z,14.00
2018-06-24T03:29:00.289Z,14.10
2018-06-24T03:32:54.807Z,14.10
2018-06-24T03:36:48.817Z,14.20
2018-06-24T03:40:42.934Z,14.20
2018-06-24T03:44:36.962Z,14.30
2018-06-24T03:48:30.496Z,14.30
2018-06-24T03:52:26.124Z,14.30
2018-06-24T03:56:19.867Z,14.40
2018-06-24T04:00:13.816Z,14.40
2018-06-24T04:04:08.532Z,14.40
2018-06-24T04:08:02.573Z,14.40
2018-06-24T04:11:56.565Z,14.40
2018-06-24T04:15:50.673Z,14.40
2018-06-24T04:19:44.762Z,14.40
2018-06-24T04:23:38.709Z,14.40
2018-06-24T04:27:32.971Z,14.40
2018-06-24T04:31:27.219Z,14.40
2018-06-24T04:35:21.369Z,14.40
2018-06-24T04:39:15.584Z,14.40
2018-06-24T04:43:09.510Z,14.50
2018-06-24T04:47:03.635Z,14.60
2018-06-24T04:50:57.228Z,15.00
2018-06-24T04:54:51.204Z,15.20
2018-06-24T04:58:45.189Z,15.30
2018-06-24T05:02:39.144Z,15.30
2018-06-24T05:06:33.343Z,15.30
2018-06-24T05:10:27.465Z,15.30
2018-06-24T05:18:15.717Z,15.50
2018-06-24T05:22:09.696Z,15.60
2018-06-24T05:26:03.806Z,15.70
2018-06-24T05:29:57.802Z,15.80
2018-06-24T05:33:51.913Z,15.90
2018-06-24T05:37:46.032Z,16.00
2018-06-24T05:41:40.411Z,16.10
2018-06-24T05:45:34.437Z,16.20
2018-06-24T05:49:28.610Z,16.20
2018-06-24T05:53:22.065Z,16.20
2018-06-24T05:57:16.123Z,16.20
2018-06-24T06:01:10.355Z,16.30
2018-06-24T06:05:04.568Z,16.40
2018-06-24T06:08:58.523Z,16.60
2018-06-24T06:12:56.117Z,16.60
2018-06-24T06:16:51.476Z,16.70
2018-06-24T06:20:46.071Z,16.80
2018-06-24T06:24:40.203Z,17.30
2018-06-24T06:28:34.503Z,17.50
2018-06-24T06:32:28.617Z,17.40
2018-06-24T06:36:22.763Z,17.30
2018-06-24T06:40:16.910Z,17.10
2018-06-24T06:44:11.085Z,17.00
2018-06-24T06:51:59.913Z,16.80
2018-06-24T06:55:54.292Z,16.80
2018-06-24T06:59:48.521Z,16.80
2018-06-24T07:03:42.915Z,16.70
2018-06-24T07:07:37.162Z,16.80
2018-06-24T07:11:31.263Z,16.70
2018-06-24T07:15:25.382Z,16.90
2018-06-24T07:19:20.375Z,16.80
2018-06-24T07:23:14.567Z,16.70
2018-06-24T07:27:09.368Z,16.90
2018-06-24T07:31:03.663Z,17.10
2018-06-24T07:34:57.993Z,17.20
2018-06-24T07:38:52.419Z,17.30
2018-06-24T07:42:46.668Z,17.60
2018-06-24T07:46:41.518Z,17.80
2018-06-24T07:50:35.919Z,18.10
2018-06-24T07:54:29.568Z,17.80
2018-06-24T07:58:23.914Z,17.90
2018-06-24T08:02:18.408Z,18.30
2018-06-24T08:06:12.695Z,18.40
2018-06-24T08:10:06.907Z,18.60
2018-06-24T08:14:02.529Z,18.70
2018-06-24T08:17:56.385Z,18.80
2018-06-24T08:21:51.488Z,18.90
2018-06-24T08:25:45.589Z,19.30
2018-06-24T08:29:39.884Z,19.70
2018-06-24T08:33:35.312Z,19.60
2018-06-24T08:37:29.472Z,19.50
2018-06-24T08:41:35.326Z,19.40
2018-06-24T08:58:41.755Z,19.70
2018-06-24T09:02:35.881Z,19.50
2018-06-24T09:06:31.269Z,19.30
2018-06-24T09:10:25.340Z,19.30
2018-06-24T09:14:20.259Z,19.50
2018-06-24T09:18:14.242Z,19.10
2018-06-24T09:22:08.956Z,19.20
2018-06-24T09:26:04.893Z,19.10
2018-06-24T09:29:59.250Z,19.10
2018-06-24T09:33:53.787Z,19.20
2018-06-24T09:37:47.912Z,19.30
2018-06-24T09:41:59.807Z,19.30
2018-06-24T09:45:54.027Z,19.50
2018-06-24T09:49:47.616Z,19.80
2018-06-24T09:53:43.073Z,19.80
2018-06-24T09:57:37.365Z,19.80
2018-06-24T10:01:31.777Z,19.80
2018-06-24T10:05:25.964Z,20.00
2018-06-24T10:09:20.152Z,20.50
2018-06-24T10:13:14.391Z,20.50
2018-06-24T10:17:09.635Z,20.90
2018-06-24T10:21:04.409Z,21.30
2018-06-24T10:24:58.569Z,21.50
2018-06-24T10:28:54.190Z,21.60
2018-06-24T10:32:49.113Z,21.80
2018-06-24T10:36:43.931Z,21.60
2018-06-24T10:40:38.048Z,21.30
2018-06-24T10:44:32.809Z,21.30
2018-06-24T10:48:26.452Z,21.70
2018-06-24T10:52:20.542Z,22.20
2018-06-24T11:00:12.250Z,22.20
2018-06-24T11:04:06.322Z,22.00
2018-06-24T11:08:01.292Z,22.10
2018-06-24T11:11:55.522Z,21.60
2018-06-24T11:15:49.588Z,21.40
2018-06-24T11:19:43.876Z,21.50
2018-06-24T11:23:37.880Z,21.50
2018-06-24T11:27:32.184Z,21.90
2018-06-24T11:31:27.303Z,21.80
2018-06-24T11:35:22.164Z,21.60
2018-06-24T11:39:18.726Z,21.40
2018-06-24T11:43:14.257Z,21.50
2018-06-24T11:47:15.366Z,21.60
2018-06-24T11:51:11.500Z,21.90
2018-06-24T11:55:05.495Z,21.80
2018-06-24T11:59:00.494Z,21.80
2018-06-24T12:02:54.454Z,21.90
2018-06-24T12:06:49.099Z,21.80
2018-06-24T12:10:43.180Z,21.60
2018-06-24T12:14:37.252Z,21.50
2018-06-24T12:18:31.460Z,21.40
2018-06-24T12:22:25.810Z,21.40
2018-06-24T12:26:20.004Z,21.10
2018-06-24T12:30:14.837Z,21.00
2018-06-24T12:34:08.922Z,21.10
2018-06-24T12:38:03.276Z,21.20
2018-06-24T12:41:58.720Z,20.80
2018-06-24T12:49:59.295Z,20.90
2018-06-24T12:53:53.335Z,21.10
2018-06-24T12:57:47.595Z,21.20
2018-06-24T13:01:41.843Z,21.10
2018-06-24T13:05:39.002Z,20.90
2018-06-24T13:09:34.628Z,20.70
2018-06-24T13:17:52.923Z,20.30
2018-06-24T13:21:47.398Z,20.00
2018-06-24T13:25:41.607Z,19.90
2018-06-24T13:29:35.927Z,20.10
2018-06-24T13:33:33.120Z,20.20
2018-06-24T13:37:27.807Z,20.30
2018-06-24T13:41:44.025Z,20.50
2018-06-24T13:45:41.498Z,20.50
2018-06-24T13:49:37.935Z,20.50
2018-06-24T13:53:32.443Z,20.40
2018-06-24T13:57:26.283Z,20.30
2018-06-24T14:01:19.474Z,20.30
2018-06-24T14:05:14.318Z,20.20
2018-06-24T14:09:10.774Z,20.10
2018-06-24T14:13:06.359Z,20.10
2018-06-24T14:17:00.380Z,20.10
2018-06-24T14:20:56.185Z,20.00
2018-06-24T14:24:50.227Z,19.90
2018-06-24T14:28:44.479Z,19.90
2018-06-24T14:32:38.471Z,19.90
2018-06-24T14:36:32.858Z,19.90
2018-06-24T14:40:26.810Z,19.80
2018-06-24T14:44:20.779Z,19.70
2018-06-24T14:48:14.260Z,19.50
2018-06-24T14:52:08.428Z,19.30
2018-06-24T14:56:02.667Z,19.50
2018-06-24T15:03:50.436Z,19.80
2018-06-24T15:07:44.681Z,19.80
2018-06-24T15:11:40.633Z,19.70
2018-06-24T15:15:34.748Z,19.70
2018-06-24T15:19:28.891Z,19.60
2018-06-24T15:23:23.107Z,19.50
2018-06-24T15:27:17.485Z,19.10
2018-06-24T15:31:11.677Z,18.90
2018-06-24T15:35:05.712Z,18.90
2018-06-24T15:39:04.794Z,18.80
2018-06-24T15:42:58.994Z,18.90
2018-06-24T15:46:53.009Z,18.70
2018-06-24T15:50:46.538Z,18.50
2018-06-24T15:54:40.584Z,18.50
2018-06-24T15:58:34.581Z,18.40
2018-06-24T16:02:28.562Z,18.30
2018-06-24T16:06:22.571Z,18.30
2018-06-24T16:10:16.470Z,18.30
2018-06-24T16:14:10.460Z,18.10
2018-06-24T16:18:04.923Z,18.00
2018-06-24T16:21:59.125Z,18.00
2018-06-24T16:25:54.083Z,18.10
2018-06-24T16:29:48.198Z,18.10
2018-06-24T16:33:42.172Z,18.00
2018-06-24T16:37:36.277Z,18.00
2018-06-24T16:41:30.263Z,18.10
2018-06-24T16:45:24.424Z,18.20
2018-06-24T16:49:17.959Z,18.20
2018-06-24T16:53:11.991Z,18.10
2018-06-24T16:57:06.255Z,18.20
2018-06-24T17:01:00.282Z,18.20
2018-06-24T17:04:54.235Z,18.10
2018-06-24T17:08:48.224Z,18.00
2018-06-24T17:12:42.878Z,17.80
2018-06-24T17:16:37.020Z,17.90
2018-06-24T17:20:31.039Z,17.80
2018-06-24T17:24:25.024Z,17.80
2018-06-24T17:28:19.023Z,17.90
2018-06-24T17:32:13.104Z,17.90
2018-06-24T17:36:07.244Z,18.00
2018-06-24T17:40:01.320Z,18.00
2018-06-24T17:43:56.644Z,17.90
2018-06-24T17:47:51.197Z,18.00
2018-06-24T17:51:44.867Z,17.90
2018-06-24T17:55:38.911Z,17.90
2018-06-24T17:59:36.869Z,17.80
2018-06-24T18:03:30.545Z,17.70
2018-06-24T18:07:24.479Z,17.70
2018-06-24T18:11:18.655Z,17.60
2018-06-24T18:15:12.953Z,17.60
2018-06-24T18:19:11.710Z,17.60
2018-06-24T18:23:07.173Z,17.70
2018-06-24T18:27:01.191Z,17.60
2018-06-24T18:30:55.347Z,17.50
2018-06-24T18:34:49.688Z,17.50
2018-06-24T18:38:44.005Z,17.60
2018-06-24T18:42:37.947Z,17.50
2018-06-24T18:46:32.059Z,17.50
2018-06-24T18:50:25.524Z,17.50
2018-06-24T18:54:19.656Z,17.50
2018-06-24T18:58:13.724Z,17.30
2018-06-24T19:02:08.202Z,17.20
2018-06-24T19:06:03.252Z,17.20
2018-06-24T19:09:57.277Z,17.10
2018-06-24T19:13:51.538Z,16.80
2018-06-24T19:17:45.567Z,16.70
2018-06-24T19:21:39.932Z,16.60
2018-06-24T19:25:34.180Z,16.60
2018-06-24T19:29:28.294Z,16.50
2018-06-24T19:33:22.566Z,16.50
2018-06-24T19:37:17.171Z,16.60
2018-06-24T19:41:11.340Z,16.60
2018-06-24T19:45:07.522Z,16.50
2018-06-24T19:49:02.312Z,16.50
2018-06-24T19:52:56.384Z,16.40
2018-06-24T19:56:51.181Z,16.20
2018-06-24T20:00:45.662Z,16.10
2018-06-24T20:04:40.204Z,16.00
2018-06-24T20:08:34.536Z,16.00
2018-06-24T20:12:28.766Z,16.00
2018-06-24T20:16:40.984Z,16.10
2018-06-24T20:20:43.636Z,16.10
2018-06-24T20:24:37.867Z,16.10
2018-06-24T20:28:31.820Z,16.00
2018-06-24T20:32:25.780Z,16.10
2018-06-24T20:36:19.889Z,16.00
2018-06-24T20:40:14.176Z,16.00
2018-06-24T20:44:08.233Z,16.00
2018-06-24T20:48:03.559Z,15.90
2018-06-24T20:51:58.023Z,15.80
2018-06-24T20:55:53.921Z,15.80
2018-06-24T20:59:48.407Z,15.80
2018-06-24T21:03:43.518Z,15.80
2018-06-24T21:07:42.288Z,15.70
2018-06-24T21:11:38.248Z,15.70
2018-06-24T21:15:32.367Z,15.60
2018-06-24T21:19:26.413Z,15.60
2018-06-24T21:23:20.564Z,15.60
2018-06-24T21:27:14.860Z,15.60
2018-06-24T21:31:11.647Z,15.80
2018-06-24T21:35:17.061Z,15.70
2018-06-24T21:39:11.002Z,15.60
2018-06-24T21:43:06.226Z,15.60
2018-06-24T21:47:04.767Z,15.60
2018-06-24T21:50:58.229Z,15.60
2018-06-24T21:54:52.263Z,15.60
2018-06-24T21:58:46.203Z,15.50
2018-06-24T22:02:41.153Z,15.50
2018-06-24T22:06:35.871Z,15.40
2018-06-24T22:10:29.984Z,15.50
2018-06-24T22:14:23.982Z,15.60
2018-06-24T22:18:18.133Z,15.60
2018-06-24T22:22:12.164Z,15.50
2018-06-24T22:26:06.212Z,15.50
2018-06-24T22:30:00.768Z,15.50
2018-06-24T22:33:54.751Z,15.50
2018-06-24T22:37:48.768Z,15.50
2018-06-24T22:41:43.034Z,15.50
2018-06-24T22:45:37.030Z,15.50
2018-06-24T22:49:30.452Z,15.50
2018-06-24T22:53:24.444Z,15.40
2018-06-24T22:57:18.395Z,15.40
2018-06-24T23:01:12.364Z,15.40
2018-06-24T23:05:06.419Z,15.40
2018-06-24T23:09:02.481Z,15.30
2018-06-24T23:12:56.490Z,15.40
2018-06-24T23:16:50.438Z,15.30
2018-06-24T23:20:44.511Z,15.30
2018-06-24T23:24:38.540Z,15.40
2018-06-24T23:28:32.656Z,15.40
2018-06-24T23:32:26.618Z,15.40
2018-06-24T23:36:20.750Z,15.30
2018-06-24T23:40:14.713Z,15.20
2018-06-24T23:44:08.778Z,15.10
2018-06-24T23:48:02.830Z,15.20
2018-06-24T23:51:56.285Z,15.10
2018-06-24T23:55:50.130Z,15.10
2018-06-24T23:59:44.117Z,15.10
